sensor_id;sensor_type;location;lat;lon;timestamp;P1;durP1;ratioP1;P2;durP2;ratioP2
7821;SDS011;3956;50.558;9.678;2023-02-01T00:00:30;6.73;;;4.23;;
7821;SDS011;3956;50.558;9.678;2023-02-01T00:03:01;6.80;;;4.23;;
7821;SDS011;3956;50.558;9.678;2023-02-01T00:05:31;5.77;;;4.70;;
7821;SDS011;3956;50.558;9.678;2023-02-01T00:08:00;7.50;;;4.47;;
7821;SDS011;3956;50.558;9.678;2023-02-01T00:10:30;4.93;;;4.23;;
7821;SDS011;3956;50.558;9.678;2023-02-01T00:12:58;4.90;;;4.20;;
7821;SDS011;3956;50.558;9.678;2023-02-01T00:15:26;5.80;;;4.17;;
7821;SDS011;3956;50.558;9.678;2023-02-01T00:17:55;5.90;;;3.90;;
7821;SDS011;3956;50.558;9.678;2023-02-01T00:20:25;5.13;;;4.37;;
7821;SDS011;3956;50.558;9.678;2023-02-01T00:22:54;6.50;;;4.47;;
7821;SDS011;3956;50.558;9.678;2023-02-01T00:25:23;5.53;;;4.37;;
7821;SDS011;3956;50.558;9.678;2023-02-01T00:27:54;7.87;;;4.10;;
7821;SDS011;3956;50.558;9.678;2023-02-01T00:30:25;8.53;;;4.83;;
7821;SDS011;3956;50.558;9.678;2023-02-01T00:32:56;6.60;;;4.60;;
7821;SDS011;3956;50.558;9.678;2023-02-01T00:35:25;6.40;;;4.07;;
7821;SDS011;3956;50.558;9.678;2023-02-01T00:37:54;10.20;;;4.70;;
7821;SDS011;3956;50.558;9.678;2023-02-01T00:40:25;10.50;;;4.50;;
7821;SDS011;3956;50.558;9.678;2023-02-01T00:42:57;8.23;;;4.27;;
7821;SDS011;3956;50.558;9.678;2023-02-01T00:45:25;6.33;;;4.10;;
7821;SDS011;3956;50.558;9.678;2023-02-01T00:47:53;18.23;;;5.20;;
7821;SDS011;3956;50.558;9.678;2023-02-01T00:50:22;9.67;;;4.17;;
7821;SDS011;3956;50.558;9.678;2023-02-01T00:52:51;9.50;;;4.37;;
7821;SDS011;3956;50.558;9.678;2023-02-01T00:55:19;11.63;;;4.50;;
7821;SDS011;3956;50.558;9.678;2023-02-01T00:57:47;13.03;;;4.00;;
7821;SDS011;3956;50.558;9.678;2023-02-01T01:00:17;8.70;;;3.90;;
7821;SDS011;3956;50.558;9.678;2023-02-01T01:02:46;9.47;;;4.43;;
7821;SDS011;3956;50.558;9.678;2023-02-01T01:05:14;12.60;;;4.50;;
7821;SDS011;3956;50.558;9.678;2023-02-01T01:07:43;10.97;;;4.27;;
7821;SDS011;3956;50.558;9.678;2023-02-01T01:10:12;11.43;;;3.67;;
7821;SDS011;3956;50.558;9.678;2023-02-01T01:12:41;8.60;;;4.27;;
7821;SDS011;3956;50.558;9.678;2023-02-01T01:15:09;9.03;;;4.07;;
7821;SDS011;3956;50.558;9.678;2023-02-01T01:17:39;6.33;;;4.03;;
7821;SDS011;3956;50.558;9.678;2023-02-01T01:20:08;6.87;;;4.07;;
7821;SDS011;3956;50.558;9.678;2023-02-01T01:22:38;9.47;;;4.27;;
7821;SDS011;3956;50.558;9.678;2023-02-01T01:25:06;9.83;;;4.37;;
7821;SDS011;3956;50.558;9.678;2023-02-01T01:27:35;6.83;;;4.13;;
7821;SDS011;3956;50.558;9.678;2023-02-01T01:30:04;7.17;;;4.27;;
7821;SDS011;3956;50.558;9.678;2023-02-01T01:32:33;10.77;;;4.50;;
7821;SDS011;3956;50.558;9.678;2023-02-01T01:35:03;10.47;;;4.07;;
7821;SDS011;3956;50.558;9.678;2023-02-01T01:37:32;10.37;;;4.97;;
7821;SDS011;3956;50.558;9.678;2023-02-01T01:40:01;11.77;;;4.43;;
7821;SDS011;3956;50.558;9.678;2023-02-01T01:42:30;8.40;;;5.23;;
7821;SDS011;3956;50.558;9.678;2023-02-01T01:45:04;8.83;;;5.97;;
7821;SDS011;3956;50.558;9.678;2023-02-01T01:47:34;10.37;;;6.13;;
7821;SDS011;3956;50.558;9.678;2023-02-01T01:50:07;12.03;;;6.93;;
7821;SDS011;3956;50.558;9.678;2023-02-01T01:52:37;12.40;;;6.57;;
7821;SDS011;3956;50.558;9.678;2023-02-01T01:55:08;10.47;;;6.27;;
7821;SDS011;3956;50.558;9.678;2023-02-01T01:57:37;11.80;;;6.67;;
7821;SDS011;3956;50.558;9.678;2023-02-01T02:00:11;14.80;;;6.70;;
7821;SDS011;3956;50.558;9.678;2023-02-01T02:02:42;9.93;;;6.07;;
7821;SDS011;3956;50.558;9.678;2023-02-01T02:05:13;9.97;;;6.33;;
7821;SDS011;3956;50.558;9.678;2023-02-01T02:07:45;14.97;;;6.90;;
7821;SDS011;3956;50.558;9.678;2023-02-01T02:10:15;11.53;;;7.17;;
7821;SDS011;3956;50.558;9.678;2023-02-01T02:12:46;13.57;;;7.50;;
7821;SDS011;3956;50.558;9.678;2023-02-01T02:15:16;13.93;;;6.70;;
7821;SDS011;3956;50.558;9.678;2023-02-01T02:17:47;12.13;;;6.87;;
7821;SDS011;3956;50.558;9.678;2023-02-01T02:26:47;13.60;;;6.57;;
7821;SDS011;3956;50.558;9.678;2023-02-01T02:35:23;11.10;;;6.10;;
7821;SDS011;3956;50.558;9.678;2023-02-01T02:37:58;12.00;;;5.83;;
7821;SDS011;3956;50.558;9.678;2023-02-01T02:40:34;11.97;;;5.70;;
7821;SDS011;3956;50.558;9.678;2023-02-01T02:43:10;14.57;;;5.90;;
7821;SDS011;3956;50.558;9.678;2023-02-01T02:46:14;22.43;;;10.87;;
7821;SDS011;3956;50.558;9.678;2023-02-01T02:49:05;15.27;;;6.43;;
7821;SDS011;3956;50.558;9.678;2023-02-01T02:51:42;16.73;;;7.63;;
7821;SDS011;3956;50.558;9.678;2023-02-01T02:54:31;10.93;;;6.20;;
7821;SDS011;3956;50.558;9.678;2023-02-01T02:57:19;13.07;;;6.20;;
7821;SDS011;3956;50.558;9.678;2023-02-01T03:00:09;14.10;;;5.90;;
7821;SDS011;3956;50.558;9.678;2023-02-01T03:02:57;19.10;;;6.50;;
7821;SDS011;3956;50.558;9.678;2023-02-01T03:05:46;11.77;;;6.73;;
7821;SDS011;3956;50.558;9.678;2023-02-01T03:08:20;9.33;;;6.33;;
7821;SDS011;3956;50.558;9.678;2023-02-01T03:10:53;14.27;;;7.07;;
7821;SDS011;3956;50.558;9.678;2023-02-01T03:13:30;10.37;;;5.73;;
7821;SDS011;3956;50.558;9.678;2023-02-01T03:16:09;11.23;;;6.30;;
7821;SDS011;3956;50.558;9.678;2023-02-01T03:18:45;13.67;;;6.47;;
7821;SDS011;3956;50.558;9.678;2023-02-01T03:21:20;8.37;;;6.27;;
7821;SDS011;3956;50.558;9.678;2023-02-01T03:23:53;12.87;;;5.90;;
7821;SDS011;3956;50.558;9.678;2023-02-01T03:26:25;12.67;;;6.60;;
7821;SDS011;3956;50.558;9.678;2023-02-01T03:28:59;11.17;;;4.60;;
7821;SDS011;3956;50.558;9.678;2023-02-01T03:31:35;12.33;;;6.03;;
7821;SDS011;3956;50.558;9.678;2023-02-01T03:34:04;7.10;;;3.80;;
7821;SDS011;3956;50.558;9.678;2023-02-01T03:36:37;9.13;;;5.23;;
7821;SDS011;3956;50.558;9.678;2023-02-01T03:39:16;9.90;;;3.83;;
7821;SDS011;3956;50.558;9.678;2023-02-01T03:41:49;13.93;;;5.10;;
7821;SDS011;3956;50.558;9.678;2023-02-01T03:44:21;16.57;;;5.43;;
7821;SDS011;3956;50.558;9.678;2023-02-01T03:46:57;12.80;;;4.93;;
7821;SDS011;3956;50.558;9.678;2023-02-01T03:49:32;10.47;;;5.47;;
7821;SDS011;3956;50.558;9.678;2023-02-01T03:52:03;10.77;;;5.33;;
7821;SDS011;3956;50.558;9.678;2023-02-01T03:54:39;9.80;;;5.03;;
7821;SDS011;3956;50.558;9.678;2023-02-01T03:57:13;10.53;;;4.93;;
7821;SDS011;3956;50.558;9.678;2023-02-01T03:59:51;13.10;;;5.60;;
7821;SDS011;3956;50.558;9.678;2023-02-01T04:02:21;12.43;;;5.10;;
7821;SDS011;3956;50.558;9.678;2023-02-01T04:04:52;15.00;;;5.27;;
7821;SDS011;3956;50.558;9.678;2023-02-01T04:07:20;8.40;;;5.00;;
7821;SDS011;3956;50.558;9.678;2023-02-01T04:09:51;11.40;;;5.53;;
7821;SDS011;3956;50.558;9.678;2023-02-01T04:12:20;10.60;;;5.37;;
7821;SDS011;3956;50.558;9.678;2023-02-01T04:14:50;11.60;;;5.10;;
7821;SDS011;3956;50.558;9.678;2023-02-01T04:17:18;11.60;;;4.93;;
7821;SDS011;3956;50.558;9.678;2023-02-01T04:19:51;7.53;;;4.87;;
7821;SDS011;3956;50.558;9.678;2023-02-01T04:22:20;11.70;;;5.00;;
7821;SDS011;3956;50.558;9.678;2023-02-01T04:28:28;8.07;;;3.93;;
7821;SDS011;3956;50.558;9.678;2023-02-01T04:31:49;7.97;;;3.97;;
7821;SDS011;3956;50.558;9.678;2023-02-01T04:34:20;7.73;;;4.53;;
7821;SDS011;3956;50.558;9.678;2023-02-01T04:37:09;13.80;;;4.90;;
7821;SDS011;3956;50.558;9.678;2023-02-01T04:39:47;9.10;;;4.60;;
7821;SDS011;3956;50.558;9.678;2023-02-01T04:42:28;11.17;;;4.73;;
7821;SDS011;3956;50.558;9.678;2023-02-01T04:45:02;14.17;;;5.20;;
7821;SDS011;3956;50.558;9.678;2023-02-01T04:47:50;12.37;;;4.87;;
7821;SDS011;3956;50.558;9.678;2023-02-01T04:50:42;11.47;;;5.20;;
7821;SDS011;3956;50.558;9.678;2023-02-01T04:53:15;12.27;;;4.77;;
7821;SDS011;3956;50.558;9.678;2023-02-01T04:55:43;10.20;;;4.60;;
7821;SDS011;3956;50.558;9.678;2023-02-01T04:58:12;12.17;;;4.50;;
7821;SDS011;3956;50.558;9.678;2023-02-01T05:00:42;9.97;;;5.00;;
7821;SDS011;3956;50.558;9.678;2023-02-01T05:03:10;9.00;;;5.13;;
7821;SDS011;3956;50.558;9.678;2023-02-01T05:05:38;10.40;;;5.27;;
7821;SDS011;3956;50.558;9.678;2023-02-01T05:08:06;11.10;;;4.73;;
7821;SDS011;3956;50.558;9.678;2023-02-01T05:10:36;10.30;;;4.53;;
7821;SDS011;3956;50.558;9.678;2023-02-01T05:13:52;7.53;;;4.47;;
7821;SDS011;3956;50.558;9.678;2023-02-01T05:17:21;8.90;;;4.30;;
7821;SDS011;3956;50.558;9.678;2023-02-01T05:19:50;12.40;;;5.10;;
7821;SDS011;3956;50.558;9.678;2023-02-01T05:22:19;15.77;;;5.03;;
7821;SDS011;3956;50.558;9.678;2023-02-01T05:25:04;9.57;;;4.73;;
7821;SDS011;3956;50.558;9.678;2023-02-01T05:27:58;13.67;;;5.17;;
7821;SDS011;3956;50.558;9.678;2023-02-01T05:30:26;12.13;;;4.57;;
7821;SDS011;3956;50.558;9.678;2023-02-01T05:32:56;13.17;;;4.70;;
7821;SDS011;3956;50.558;9.678;2023-02-01T05:35:25;12.83;;;3.93;;
7821;SDS011;3956;50.558;9.678;2023-02-01T05:37:54;13.63;;;4.10;;
7821;SDS011;3956;50.558;9.678;2023-02-01T05:40:22;9.93;;;4.07;;
7821;SDS011;3956;50.558;9.678;2023-02-01T05:42:54;11.70;;;4.00;;
7821;SDS011;3956;50.558;9.678;2023-02-01T05:46:21;10.70;;;3.97;;
7821;SDS011;3956;50.558;9.678;2023-02-01T05:49:16;13.30;;;3.93;;
7821;SDS011;3956;50.558;9.678;2023-02-01T05:51:45;12.37;;;4.17;;
7821;SDS011;3956;50.558;9.678;2023-02-01T05:54:13;11.53;;;3.67;;
7821;SDS011;3956;50.558;9.678;2023-02-01T05:56:41;10.97;;;3.87;;
7821;SDS011;3956;50.558;9.678;2023-02-01T05:59:10;13.23;;;3.70;;
7821;SDS011;3956;50.558;9.678;2023-02-01T06:01:40;12.20;;;3.80;;
7821;SDS011;3956;50.558;9.678;2023-02-01T06:04:39;9.30;;;3.50;;
7821;SDS011;3956;50.558;9.678;2023-02-01T06:07:13;16.17;;;3.83;;
7821;SDS011;3956;50.558;9.678;2023-02-01T06:10:33;9.47;;;3.10;;
7821;SDS011;3956;50.558;9.678;2023-02-01T06:13:12;9.43;;;3.67;;
7821;SDS011;3956;50.558;9.678;2023-02-01T06:15:45;10.37;;;3.77;;
7821;SDS011;3956;50.558;9.678;2023-02-01T06:18:21;14.10;;;4.27;;
7821;SDS011;3956;50.558;9.678;2023-02-01T06:21:29;12.27;;;4.00;;
7821;SDS011;3956;50.558;9.678;2023-02-01T06:24:51;12.67;;;3.83;;
7821;SDS011;3956;50.558;9.678;2023-02-01T06:27:20;9.97;;;3.63;;
7821;SDS011;3956;50.558;9.678;2023-02-01T06:30:15;16.90;;;4.20;;
7821;SDS011;3956;50.558;9.678;2023-02-01T06:32:51;12.20;;;3.57;;
7821;SDS011;3956;50.558;9.678;2023-02-01T06:35:25;9.27;;;3.87;;
7821;SDS011;3956;50.558;9.678;2023-02-01T06:41:00;16.03;;;3.97;;
7821;SDS011;3956;50.558;9.678;2023-02-01T06:43:36;15.30;;;4.50;;
7821;SDS011;3956;50.558;9.678;2023-02-01T06:46:12;16.60;;;4.77;;
7821;SDS011;3956;50.558;9.678;2023-02-01T06:48:41;10.77;;;4.00;;
7821;SDS011;3956;50.558;9.678;2023-02-01T06:51:19;10.10;;;3.53;;
7821;SDS011;3956;50.558;9.678;2023-02-01T06:54:00;11.83;;;3.77;;
7821;SDS011;3956;50.558;9.678;2023-02-01T06:57:00;15.57;;;4.10;;
7821;SDS011;3956;50.558;9.678;2023-02-01T06:59:30;13.27;;;4.20;;
7821;SDS011;3956;50.558;9.678;2023-02-01T07:02:05;13.73;;;4.60;;
7821;SDS011;3956;50.558;9.678;2023-02-01T07:05:22;16.23;;;4.90;;
7821;SDS011;3956;50.558;9.678;2023-02-01T07:08:34;6.07;;;3.00;;
7821;SDS011;3956;50.558;9.678;2023-02-01T07:17:51;13.23;;;4.77;;
7821;SDS011;3956;50.558;9.678;2023-02-01T07:20:36;9.53;;;3.47;;
7821;SDS011;3956;50.558;9.678;2023-02-01T07:23:08;18.10;;;4.33;;
7821;SDS011;3956;50.558;9.678;2023-02-01T07:25:46;8.00;;;3.83;;
7821;SDS011;3956;50.558;9.678;2023-02-01T07:28:22;15.40;;;3.30;;
7821;SDS011;3956;50.558;9.678;2023-02-01T07:30:53;11.27;;;3.63;;
7821;SDS011;3956;50.558;9.678;2023-02-01T07:33:26;12.70;;;3.67;;
7821;SDS011;3956;50.558;9.678;2023-02-01T07:35:56;12.23;;;3.90;;
7821;SDS011;3956;50.558;9.678;2023-02-01T07:38:25;11.27;;;3.00;;
7821;SDS011;3956;50.558;9.678;2023-02-01T07:40:58;9.20;;;3.00;;
7821;SDS011;3956;50.558;9.678;2023-02-01T07:46:52;13.50;;;3.40;;
7821;SDS011;3956;50.558;9.678;2023-02-01T07:49:22;9.63;;;2.87;;
7821;SDS011;3956;50.558;9.678;2023-02-01T07:51:50;12.63;;;3.53;;
7821;SDS011;3956;50.558;9.678;2023-02-01T07:54:20;14.50;;;4.03;;
7821;SDS011;3956;50.558;9.678;2023-02-01T07:56:55;15.60;;;3.53;;
7821;SDS011;3956;50.558;9.678;2023-02-01T07:59:25;8.73;;;3.13;;
7821;SDS011;3956;50.558;9.678;2023-02-01T08:01:55;8.87;;;3.50;;
7821;SDS011;3956;50.558;9.678;2023-02-01T08:04:33;11.63;;;3.60;;
7821;SDS011;3956;50.558;9.678;2023-02-01T08:07:37;11.03;;;2.87;;
7821;SDS011;3956;50.558;9.678;2023-02-01T08:10:56;8.13;;;2.33;;
7821;SDS011;3956;50.558;9.678;2023-02-01T08:13:26;13.43;;;3.50;;
7821;SDS011;3956;50.558;9.678;2023-02-01T08:15:57;17.67;;;4.40;;
7821;SDS011;3956;50.558;9.678;2023-02-01T08:18:25;11.50;;;3.60;;
7821;SDS011;3956;50.558;9.678;2023-02-01T08:20:57;14.07;;;3.33;;
7821;SDS011;3956;50.558;9.678;2023-02-01T08:23:34;9.40;;;3.00;;
7821;SDS011;3956;50.558;9.678;2023-02-01T08:26:28;9.20;;;3.80;;
7821;SDS011;3956;50.558;9.678;2023-02-01T08:30:04;12.43;;;3.60;;
7821;SDS011;3956;50.558;9.678;2023-02-01T08:32:40;12.30;;;3.07;;
7821;SDS011;3956;50.558;9.678;2023-02-01T08:35:44;9.67;;;3.40;;
7821;SDS011;3956;50.558;9.678;2023-02-01T08:42:03;10.80;;;3.07;;
7821;SDS011;3956;50.558;9.678;2023-02-01T08:45:04;11.63;;;2.93;;
7821;SDS011;3956;50.558;9.678;2023-02-01T08:47:35;11.53;;;3.37;;
7821;SDS011;3956;50.558;9.678;2023-02-01T08:50:07;12.03;;;3.83;;
7821;SDS011;3956;50.558;9.678;2023-02-01T08:52:38;7.13;;;2.50;;
7821;SDS011;3956;50.558;9.678;2023-02-01T08:55:11;11.30;;;3.70;;
7821;SDS011;3956;50.558;9.678;2023-02-01T08:57:42;14.00;;;3.63;;
7821;SDS011;3956;50.558;9.678;2023-02-01T09:00:12;14.53;;;4.03;;
7821;SDS011;3956;50.558;9.678;2023-02-01T09:02:44;8.33;;;3.17;;
7821;SDS011;3956;50.558;9.678;2023-02-01T09:05:57;13.37;;;3.83;;
7821;SDS011;3956;50.558;9.678;2023-02-01T09:08:42;11.60;;;3.50;;
7821;SDS011;3956;50.558;9.678;2023-02-01T09:11:15;14.53;;;4.27;;
7821;SDS011;3956;50.558;9.678;2023-02-01T09:21:03;7.27;;;3.77;;
7821;SDS011;3956;50.558;9.678;2023-02-01T09:23:32;13.50;;;4.00;;
7821;SDS011;3956;50.558;9.678;2023-02-01T09:26:03;12.80;;;3.87;;
7821;SDS011;3956;50.558;9.678;2023-02-01T09:28:33;10.70;;;3.50;;
7821;SDS011;3956;50.558;9.678;2023-02-01T09:31:01;8.37;;;3.60;;
7821;SDS011;3956;50.558;9.678;2023-02-01T09:33:31;12.67;;;3.70;;
7821;SDS011;3956;50.558;9.678;2023-02-01T09:36:01;11.23;;;3.53;;
7821;SDS011;3956;50.558;9.678;2023-02-01T09:38:34;10.77;;;3.30;;
7821;SDS011;3956;50.558;9.678;2023-02-01T09:41:07;13.07;;;4.00;;
7821;SDS011;3956;50.558;9.678;2023-02-01T09:43:53;12.03;;;3.70;;
7821;SDS011;3956;50.558;9.678;2023-02-01T09:46:50;11.10;;;3.73;;
7821;SDS011;3956;50.558;9.678;2023-02-01T09:49:24;14.10;;;4.40;;
7821;SDS011;3956;50.558;9.678;2023-02-01T09:52:04;14.87;;;4.47;;
7821;SDS011;3956;50.558;9.678;2023-02-01T09:54:38;9.27;;;3.60;;
7821;SDS011;3956;50.558;9.678;2023-02-01T09:57:11;14.27;;;4.43;;
7821;SDS011;3956;50.558;9.678;2023-02-01T09:59:46;18.73;;;4.20;;
7821;SDS011;3956;50.558;9.678;2023-02-01T10:09:38;13.93;;;4.03;;
7821;SDS011;3956;50.558;9.678;2023-02-01T10:12:41;13.37;;;3.80;;
7821;SDS011;3956;50.558;9.678;2023-02-01T10:15:28;11.27;;;3.70;;
7821;SDS011;3956;50.558;9.678;2023-02-01T10:18:07;11.40;;;3.57;;
7821;SDS011;3956;50.558;9.678;2023-02-01T10:20:53;8.00;;;3.37;;
7821;SDS011;3956;50.558;9.678;2023-02-01T10:30:23;11.57;;;3.70;;
7821;SDS011;3956;50.558;9.678;2023-02-01T10:33:44;13.73;;;3.67;;
7821;SDS011;3956;50.558;9.678;2023-02-01T10:37:00;14.43;;;3.90;;
7821;SDS011;3956;50.558;9.678;2023-02-01T10:42:25;12.77;;;4.97;;
7821;SDS011;3956;50.558;9.678;2023-02-01T10:44:56;9.50;;;3.07;;
7821;SDS011;3956;50.558;9.678;2023-02-01T10:47:33;11.57;;;3.70;;
7821;SDS011;3956;50.558;9.678;2023-02-01T10:50:06;11.70;;;3.90;;
7821;SDS011;3956;50.558;9.678;2023-02-01T10:53:04;14.00;;;3.63;;
7821;SDS011;3956;50.558;9.678;2023-02-01T10:55:55;12.87;;;3.83;;
7821;SDS011;3956;50.558;9.678;2023-02-01T10:58:26;12.53;;;3.80;;
7821;SDS011;3956;50.558;9.678;2023-02-01T11:01:00;11.13;;;3.77;;
7821;SDS011;3956;50.558;9.678;2023-02-01T11:03:57;14.23;;;3.80;;
7821;SDS011;3956;50.558;9.678;2023-02-01T11:06:29;8.40;;;3.70;;
7821;SDS011;3956;50.558;9.678;2023-02-01T11:09:21;12.43;;;3.80;;
7821;SDS011;3956;50.558;9.678;2023-02-01T11:12:03;12.90;;;3.50;;
7821;SDS011;3956;50.558;9.678;2023-02-01T11:14:48;12.37;;;3.93;;
7821;SDS011;3956;50.558;9.678;2023-02-01T11:18:13;10.27;;;3.03;;
7821;SDS011;3956;50.558;9.678;2023-02-01T11:20:46;11.47;;;4.10;;
7821;SDS011;3956;50.558;9.678;2023-02-01T11:23:18;11.20;;;3.63;;
7821;SDS011;3956;50.558;9.678;2023-02-01T11:29:10;14.57;;;3.27;;
7821;SDS011;3956;50.558;9.678;2023-02-01T11:31:49;10.63;;;3.17;;
7821;SDS011;3956;50.558;9.678;2023-02-01T11:34:20;14.97;;;3.77;;
7821;SDS011;3956;50.558;9.678;2023-02-01T11:40:27;13.43;;;3.50;;
7821;SDS011;3956;50.558;9.678;2023-02-01T11:43:32;15.43;;;3.30;;
7821;SDS011;3956;50.558;9.678;2023-02-01T11:46:16;12.37;;;3.40;;
7821;SDS011;3956;50.558;9.678;2023-02-01T11:48:53;9.33;;;3.50;;
7821;SDS011;3956;50.558;9.678;2023-02-01T11:51:40;6.57;;;2.70;;
7821;SDS011;3956;50.558;9.678;2023-02-01T11:54:32;12.50;;;3.43;;
7821;SDS011;3956;50.558;9.678;2023-02-01T11:57:22;9.83;;;2.90;;
7821;SDS011;3956;50.558;9.678;2023-02-01T12:00:31;12.37;;;3.40;;
7821;SDS011;3956;50.558;9.678;2023-02-01T12:06:55;13.50;;;2.67;;
7821;SDS011;3956;50.558;9.678;2023-02-01T12:12:45;10.10;;;3.30;;
7821;SDS011;3956;50.558;9.678;2023-02-01T12:16:12;8.23;;;2.77;;
7821;SDS011;3956;50.558;9.678;2023-02-01T12:19:57;11.40;;;3.70;;
7821;SDS011;3956;50.558;9.678;2023-02-01T12:22:48;14.53;;;3.20;;
7821;SDS011;3956;50.558;9.678;2023-02-01T12:26:08;8.60;;;2.97;;
7821;SDS011;3956;50.558;9.678;2023-02-01T12:29:13;13.83;;;3.60;;
7821;SDS011;3956;50.558;9.678;2023-02-01T12:32:03;10.70;;;3.10;;
7821;SDS011;3956;50.558;9.678;2023-02-01T12:34:47;10.87;;;3.07;;
7821;SDS011;3956;50.558;9.678;2023-02-01T12:37:38;8.80;;;2.73;;
7821;SDS011;3956;50.558;9.678;2023-02-01T12:40:21;8.37;;;2.83;;
7821;SDS011;3956;50.558;9.678;2023-02-01T12:43:45;11.30;;;2.97;;
7821;SDS011;3956;50.558;9.678;2023-02-01T12:46:42;6.40;;;2.83;;
7821;SDS011;3956;50.558;9.678;2023-02-01T12:49:15;8.57;;;2.87;;
7821;SDS011;3956;50.558;9.678;2023-02-01T12:51:48;10.10;;;2.60;;
7821;SDS011;3956;50.558;9.678;2023-02-01T12:54:57;12.13;;;3.00;;
7821;SDS011;3956;50.558;9.678;2023-02-01T12:58:13;9.93;;;2.83;;
7821;SDS011;3956;50.558;9.678;2023-02-01T13:01:33;11.13;;;2.90;;
7821;SDS011;3956;50.558;9.678;2023-02-01T13:04:15;12.07;;;3.23;;
7821;SDS011;3956;50.558;9.678;2023-02-01T13:06:49;8.07;;;2.77;;
7821;SDS011;3956;50.558;9.678;2023-02-01T13:09:28;7.83;;;2.50;;
7821;SDS011;3956;50.558;9.678;2023-02-01T13:12:15;9.43;;;3.03;;
7821;SDS011;3956;50.558;9.678;2023-02-01T13:15:10;7.13;;;2.70;;
7821;SDS011;3956;50.558;9.678;2023-02-01T13:18:03;9.60;;;2.90;;
7821;SDS011;3956;50.558;9.678;2023-02-01T13:20:45;7.13;;;2.53;;
7821;SDS011;3956;50.558;9.678;2023-02-01T13:23:52;9.07;;;2.80;;
7821;SDS011;3956;50.558;9.678;2023-02-01T13:27:13;10.00;;;2.53;;
7821;SDS011;3956;50.558;9.678;2023-02-01T13:29:46;9.27;;;2.80;;
7821;SDS011;3956;50.558;9.678;2023-02-01T13:32:27;9.70;;;2.47;;
7821;SDS011;3956;50.558;9.678;2023-02-01T13:39:11;9.07;;;3.00;;
7821;SDS011;3956;50.558;9.678;2023-02-01T13:42:11;8.63;;;2.10;;
7821;SDS011;3956;50.558;9.678;2023-02-01T13:44:44;6.53;;;2.47;;
7821;SDS011;3956;50.558;9.678;2023-02-01T13:47:25;6.73;;;2.10;;
7821;SDS011;3956;50.558;9.678;2023-02-01T13:50:03;9.60;;;3.10;;
7821;SDS011;3956;50.558;9.678;2023-02-01T13:53:04;8.77;;;2.47;;
7821;SDS011;3956;50.558;9.678;2023-02-01T13:55:49;7.15;;;2.58;;
7821;SDS011;3956;50.558;9.678;2023-02-01T13:58:33;8.07;;;2.30;;
7821;SDS011;3956;50.558;9.678;2023-02-01T14:01:32;5.47;;;2.00;;
7821;SDS011;3956;50.558;9.678;2023-02-01T14:04:48;4.77;;;2.10;;
7821;SDS011;3956;50.558;9.678;2023-02-01T14:11:37;9.30;;;2.17;;
7821;SDS011;3956;50.558;9.678;2023-02-01T14:14:41;9.73;;;2.30;;
7821;SDS011;3956;50.558;9.678;2023-02-01T14:17:29;8.93;;;3.07;;
7821;SDS011;3956;50.558;9.678;2023-02-01T14:27:14;8.50;;;2.73;;
7821;SDS011;3956;50.558;9.678;2023-02-01T14:30:55;8.97;;;2.40;;
7821;SDS011;3956;50.558;9.678;2023-02-01T14:33:27;11.27;;;2.50;;
7821;SDS011;3956;50.558;9.678;2023-02-01T14:36:09;8.80;;;2.80;;
7821;SDS011;3956;50.558;9.678;2023-02-01T14:38:48;7.17;;;2.63;;
7821;SDS011;3956;50.558;9.678;2023-02-01T14:41:31;8.27;;;2.93;;
7821;SDS011;3956;50.558;9.678;2023-02-01T14:44:23;5.17;;;1.97;;
7821;SDS011;3956;50.558;9.678;2023-02-01T14:47:27;7.83;;;2.27;;
7821;SDS011;3956;50.558;9.678;2023-02-01T14:53:18;8.30;;;2.70;;
7821;SDS011;3956;50.558;9.678;2023-02-01T14:55:53;8.67;;;2.47;;
7821;SDS011;3956;50.558;9.678;2023-02-01T14:58:35;11.70;;;2.80;;
7821;SDS011;3956;50.558;9.678;2023-02-01T15:01:40;8.80;;;3.00;;
7821;SDS011;3956;50.558;9.678;2023-02-01T15:04:18;5.73;;;2.30;;
7821;SDS011;3956;50.558;9.678;2023-02-01T15:06:53;5.70;;;2.60;;
7821;SDS011;3956;50.558;9.678;2023-02-01T15:09:25;4.57;;;2.17;;
7821;SDS011;3956;50.558;9.678;2023-02-01T15:12:22;7.03;;;2.37;;
7821;SDS011;3956;50.558;9.678;2023-02-01T15:15:22;8.63;;;2.90;;
7821;SDS011;3956;50.558;9.678;2023-02-01T15:18:16;9.40;;;2.53;;
7821;SDS011;3956;50.558;9.678;2023-02-01T15:20:58;7.77;;;2.43;;
7821;SDS011;3956;50.558;9.678;2023-02-01T15:26:47;5.17;;;2.00;;
7821;SDS011;3956;50.558;9.678;2023-02-01T15:29:24;7.80;;;2.33;;
7821;SDS011;3956;50.558;9.678;2023-02-01T15:32:06;6.07;;;2.27;;
7821;SDS011;3956;50.558;9.678;2023-02-01T15:42:34;8.33;;;2.30;;
7821;SDS011;3956;50.558;9.678;2023-02-01T15:45:46;7.63;;;2.40;;
7821;SDS011;3956;50.558;9.678;2023-02-01T15:48:21;4.67;;;1.63;;
7821;SDS011;3956;50.558;9.678;2023-02-01T15:50:52;12.73;;;2.40;;
7821;SDS011;3956;50.558;9.678;2023-02-01T15:53:24;6.67;;;2.10;;
7821;SDS011;3956;50.558;9.678;2023-02-01T15:56:11;6.57;;;2.20;;
7821;SDS011;3956;50.558;9.678;2023-02-01T15:59:17;6.93;;;2.00;;
7821;SDS011;3956;50.558;9.678;2023-02-01T16:02:23;5.63;;;2.20;;
7821;SDS011;3956;50.558;9.678;2023-02-01T16:04:56;10.60;;;2.50;;
7821;SDS011;3956;50.558;9.678;2023-02-01T16:07:29;8.07;;;2.20;;
7821;SDS011;3956;50.558;9.678;2023-02-01T16:10:25;4.50;;;1.50;;
7821;SDS011;3956;50.558;9.678;2023-02-01T16:12:57;3.63;;;1.60;;
7821;SDS011;3956;50.558;9.678;2023-02-01T16:15:27;3.90;;;1.63;;
7821;SDS011;3956;50.558;9.678;2023-02-01T16:17:59;4.37;;;1.67;;
7821;SDS011;3956;50.558;9.678;2023-02-01T16:20:34;4.53;;;1.73;;
7821;SDS011;3956;50.558;9.678;2023-02-01T16:23:12;8.63;;;1.97;;
7821;SDS011;3956;50.558;9.678;2023-02-01T16:25:50;3.80;;;1.80;;
7821;SDS011;3956;50.558;9.678;2023-02-01T16:35:47;5.33;;;2.27;;
7821;SDS011;3956;50.558;9.678;2023-02-01T16:38:35;9.63;;;1.87;;
7821;SDS011;3956;50.558;9.678;2023-02-01T16:41:08;6.03;;;2.37;;
7821;SDS011;3956;50.558;9.678;2023-02-01T16:44:34;5.50;;;1.87;;
7821;SDS011;3956;50.558;9.678;2023-02-01T16:47:35;4.67;;;1.80;;
7821;SDS011;3956;50.558;9.678;2023-02-01T16:50:14;3.93;;;1.60;;
7821;SDS011;3956;50.558;9.678;2023-02-01T16:56:17;8.57;;;2.43;;
7821;SDS011;3956;50.558;9.678;2023-02-01T16:59:19;5.83;;;1.90;;
7821;SDS011;3956;50.558;9.678;2023-02-01T17:01:49;5.63;;;2.50;;
7821;SDS011;3956;50.558;9.678;2023-02-01T17:04:46;4.73;;;2.03;;
7821;SDS011;3956;50.558;9.678;2023-02-01T17:07:40;5.23;;;2.27;;
7821;SDS011;3956;50.558;9.678;2023-02-01T17:10:45;5.43;;;3.07;;
7821;SDS011;3956;50.558;9.678;2023-02-01T17:13:16;7.23;;;2.10;;
7821;SDS011;3956;50.558;9.678;2023-02-01T17:16:19;4.90;;;2.30;;
7821;SDS011;3956;50.558;9.678;2023-02-01T17:18:53;8.80;;;2.40;;
7821;SDS011;3956;50.558;9.678;2023-02-01T17:21:26;6.30;;;2.20;;
7821;SDS011;3956;50.558;9.678;2023-02-01T17:23:58;8.90;;;2.50;;
7821;SDS011;3956;50.558;9.678;2023-02-01T17:26:31;11.33;;;2.83;;
7821;SDS011;3956;50.558;9.678;2023-02-01T17:29:11;7.53;;;2.20;;
7821;SDS011;3956;50.558;9.678;2023-02-01T17:31:43;9.93;;;2.73;;
7821;SDS011;3956;50.558;9.678;2023-02-01T17:35:08;7.37;;;2.60;;
7821;SDS011;3956;50.558;9.678;2023-02-01T17:38:40;9.17;;;2.60;;
7821;SDS011;3956;50.558;9.678;2023-02-01T17:41:21;5.87;;;2.40;;
7821;SDS011;3956;50.558;9.678;2023-02-01T17:43:53;8.90;;;2.60;;
7821;SDS011;3956;50.558;9.678;2023-02-01T17:46:27;7.33;;;2.83;;
7821;SDS011;3956;50.558;9.678;2023-02-01T17:48:57;5.07;;;2.30;;
7821;SDS011;3956;50.558;9.678;2023-02-01T17:51:27;7.67;;;2.73;;
7821;SDS011;3956;50.558;9.678;2023-02-01T17:53:57;7.47;;;3.50;;
7821;SDS011;3956;50.558;9.678;2023-02-01T17:56:29;10.20;;;2.93;;
7821;SDS011;3956;50.558;9.678;2023-02-01T18:01:44;10.13;;;3.00;;
7821;SDS011;3956;50.558;9.678;2023-02-01T18:04:12;5.80;;;2.43;;
7821;SDS011;3956;50.558;9.678;2023-02-01T18:06:48;8.37;;;2.40;;
7821;SDS011;3956;50.558;9.678;2023-02-01T18:09:18;11.10;;;2.40;;
7821;SDS011;3956;50.558;9.678;2023-02-01T18:11:53;5.83;;;2.27;;
7821;SDS011;3956;50.558;9.678;2023-02-01T18:14:24;7.77;;;2.90;;
7821;SDS011;3956;50.558;9.678;2023-02-01T18:17:04;9.60;;;2.80;;
7821;SDS011;3956;50.558;9.678;2023-02-01T18:19:36;8.83;;;2.90;;
7821;SDS011;3956;50.558;9.678;2023-02-01T18:22:14;10.90;;;2.73;;
7821;SDS011;3956;50.558;9.678;2023-02-01T18:24:45;6.20;;;2.37;;